sensor_id;sensor_type;location;lat;lon;timestamp;P1;durP1;ratioP1;P2;durP2;ratioP2
65035;SDS011;51603;49.300;8.880;2024-03-06T00:00:34;30.97;;;26.13;;
65035;SDS011;51603;49.300;8.880;2024-03-06T00:03:00;25.73;;;23.30;;
65035;SDS011;51603;49.300;8.880;2024-03-06T00:05:25;24.67;;;22.27;;
65035;SDS011;51603;49.300;8.880;2024-03-06T00:07:51;26.57;;;23.77;;
65035;SDS011;51603;49.300;8.880;2024-03-06T00:10:16;33.63;;;30.43;;
65035;SDS011;51603;49.300;8.880;2024-03-06T00:12:42;32.57;;;29.43;;
65035;SDS011;51603;49.300;8.880;2024-03-06T00:15:08;36.90;;;33.20;;
65035;SDS011;51603;49.300;8.880;2024-03-06T00:17:33;35.27;;;31.77;;
65035;SDS011;51603;49.300;8.880;2024-03-06T00:19:59;31.70;;;28.50;;
65035;SDS011;51603;49.300;8.880;2024-03-06T00:22:24;28.77;;;25.97;;
65035;SDS011;51603;49.300;8.880;2024-03-06T00:24:50;28.93;;;25.90;;
65035;SDS011;51603;49.300;8.880;2024-03-06T00:27:16;28.67;;;25.83;;
65035;SDS011;51603;49.300;8.880;2024-03-06T00:29:42;25.47;;;22.97;;
65035;SDS011;51603;49.300;8.880;2024-03-06T00:32:07;27.07;;;24.27;;
65035;SDS011;51603;49.300;8.880;2024-03-06T00:34:33;26.83;;;22.97;;
65035;SDS011;51603;49.300;8.880;2024-03-06T00:36:58;30.90;;;27.57;;
65035;SDS011;51603;49.300;8.880;2024-03-06T00:39:24;30.13;;;27.10;;
65035;SDS011;51603;49.300;8.880;2024-03-06T00:41:49;30.67;;;27.50;;
65035;SDS011;51603;49.300;8.880;2024-03-06T00:44:15;27.30;;;24.50;;
65035;SDS011;51603;49.300;8.880;2024-03-06T00:46:41;26.43;;;23.93;;
65035;SDS011;51603;49.300;8.880;2024-03-06T00:49:07;25.63;;;22.90;;
65035;SDS011;51603;49.300;8.880;2024-03-06T00:51:33;27.80;;;24.67;;
65035;SDS011;51603;49.300;8.880;2024-03-06T00:54:01;26.27;;;23.43;;
65035;SDS011;51603;49.300;8.880;2024-03-06T00:56:27;50.10;;;26.90;;
65035;SDS011;51603;49.300;8.880;2024-03-06T00:58:53;32.00;;;28.60;;
65035;SDS011;51603;49.300;8.880;2024-03-06T01:01:18;34.27;;;30.83;;
65035;SDS011;51603;49.300;8.880;2024-03-06T01:03:44;38.03;;;30.97;;
65035;SDS011;51603;49.300;8.880;2024-03-06T01:06:09;31.10;;;28.00;;
65035;SDS011;51603;49.300;8.880;2024-03-06T01:08:35;30.87;;;27.60;;
65035;SDS011;51603;49.300;8.880;2024-03-06T01:11:01;23.43;;;19.53;;
65035;SDS011;51603;49.300;8.880;2024-03-06T01:13:27;19.33;;;17.40;;
65035;SDS011;51603;49.300;8.880;2024-03-06T01:15:52;23.63;;;20.83;;
65035;SDS011;51603;49.300;8.880;2024-03-06T01:18:18;26.80;;;24.10;;
65035;SDS011;51603;49.300;8.880;2024-03-06T01:20:43;24.50;;;22.00;;
65035;SDS011;51603;49.300;8.880;2024-03-06T01:23:09;25.50;;;22.90;;
65035;SDS011;51603;49.300;8.880;2024-03-06T01:25:35;24.47;;;22.07;;
65035;SDS011;51603;49.300;8.880;2024-03-06T01:28:02;21.97;;;19.13;;
65035;SDS011;51603;49.300;8.880;2024-03-06T01:30:27;19.90;;;18.00;;
65035;SDS011;51603;49.300;8.880;2024-03-06T01:32:53;21.17;;;19.00;;
65035;SDS011;51603;49.300;8.880;2024-03-06T01:35:18;20.23;;;18.27;;
65035;SDS011;51603;49.300;8.880;2024-03-06T01:37:44;21.27;;;17.30;;
65035;SDS011;51603;49.300;8.880;2024-03-06T01:40:10;18.60;;;16.70;;
65035;SDS011;51603;49.300;8.880;2024-03-06T01:42:37;17.67;;;15.67;;
65035;SDS011;51603;49.300;8.880;2024-03-06T01:45:03;19.57;;;16.40;;
65035;SDS011;51603;49.300;8.880;2024-03-06T01:47:29;21.27;;;18.43;;
65035;SDS011;51603;49.300;8.880;2024-03-06T01:49:55;17.93;;;16.13;;
65035;SDS011;51603;49.300;8.880;2024-03-06T01:52:20;17.70;;;15.80;;
65035;SDS011;51603;49.300;8.880;2024-03-06T01:54:47;16.77;;;15.07;;
65035;SDS011;51603;49.300;8.880;2024-03-06T01:57:14;18.10;;;16.30;;
65035;SDS011;51603;49.300;8.880;2024-03-06T01:59:42;18.30;;;16.40;;
65035;SDS011;51603;49.300;8.880;2024-03-06T02:02:08;17.70;;;15.20;;
65035;SDS011;51603;49.300;8.880;2024-03-06T02:04:36;19.40;;;16.10;;
65035;SDS011;51603;49.300;8.880;2024-03-06T02:07:02;18.90;;;16.23;;
65035;SDS011;51603;49.300;8.880;2024-03-06T02:09:27;44.07;;;20.20;;
65035;SDS011;51603;49.300;8.880;2024-03-06T02:11:55;252.67;;;32.60;;
65035;SDS011;51603;49.300;8.880;2024-03-06T02:14:20;45.13;;;20.70;;
65035;SDS011;51603;49.300;8.880;2024-03-06T02:16:46;22.63;;;18.93;;
65035;SDS011;51603;49.300;8.880;2024-03-06T02:19:11;25.27;;;20.13;;
65035;SDS011;51603;49.300;8.880;2024-03-06T02:21:37;24.60;;;19.40;;
65035;SDS011;51603;49.300;8.880;2024-03-06T02:24:02;133.77;;;30.23;;
65035;SDS011;51603;49.300;8.880;2024-03-06T02:26:28;227.03;;;36.40;;
65035;SDS011;51603;49.300;8.880;2024-03-06T02:28:54;30.90;;;20.60;;
65035;SDS011;51603;49.300;8.880;2024-03-06T02:31:21;123.07;;;34.83;;
65035;SDS011;51603;49.300;8.880;2024-03-06T02:33:48;34.83;;;21.93;;
65035;SDS011;51603;49.300;8.880;2024-03-06T02:36:16;23.77;;;19.23;;
65035;SDS011;51603;49.300;8.880;2024-03-06T02:38:43;26.53;;;20.73;;
65035;SDS011;51603;49.300;8.880;2024-03-06T02:41:09;23.33;;;18.00;;
65035;SDS011;51603;49.300;8.880;2024-03-06T02:43:35;22.40;;;17.57;;
65035;SDS011;51603;49.300;8.880;2024-03-06T02:46:02;23.23;;;16.90;;
65035;SDS011;51603;49.300;8.880;2024-03-06T02:48:28;20.20;;;16.53;;
65035;SDS011;51603;49.300;8.880;2024-03-06T02:50:54;19.00;;;16.30;;
65035;SDS011;51603;49.300;8.880;2024-03-06T02:53:20;18.33;;;16.07;;
65035;SDS011;51603;49.300;8.880;2024-03-06T02:55:45;19.73;;;15.37;;
65035;SDS011;51603;49.300;8.880;2024-03-06T02:58:11;20.60;;;17.40;;
65035;SDS011;51603;49.300;8.880;2024-03-06T03:00:36;18.90;;;15.07;;
65035;SDS011;51603;49.300;8.880;2024-03-06T03:03:05;17.30;;;14.50;;
65035;SDS011;51603;49.300;8.880;2024-03-06T03:05:31;18.67;;;15.70;;
65035;SDS011;51603;49.300;8.880;2024-03-06T03:07:58;37.77;;;20.90;;
65035;SDS011;51603;49.300;8.880;2024-03-06T03:10:23;33.30;;;22.53;;
65035;SDS011;51603;49.300;8.880;2024-03-06T03:12:49;26.00;;;20.43;;
65035;SDS011;51603;49.300;8.880;2024-03-06T03:15:15;27.00;;;21.33;;
65035;SDS011;51603;49.300;8.880;2024-03-06T03:17:41;28.17;;;19.10;;
65035;SDS011;51603;49.300;8.880;2024-03-06T03:20:06;21.20;;;17.67;;
65035;SDS011;51603;49.300;8.880;2024-03-06T03:22:38;18.13;;;16.23;;
65035;SDS011;51603;49.300;8.880;2024-03-06T03:25:07;61.17;;;20.03;;
65035;SDS011;51603;49.300;8.880;2024-03-06T03:27:34;196.93;;;26.37;;
65035;SDS011;51603;49.300;8.880;2024-03-06T03:29:59;102.80;;;21.83;;
65035;SDS011;51603;49.300;8.880;2024-03-06T03:32:25;48.23;;;21.70;;
65035;SDS011;51603;49.300;8.880;2024-03-06T03:34:50;28.03;;;19.23;;
65035;SDS011;51603;49.300;8.880;2024-03-06T03:37:16;87.53;;;23.20;;
65035;SDS011;51603;49.300;8.880;2024-03-06T03:39:43;84.33;;;27.30;;
65035;SDS011;51603;49.300;8.880;2024-03-06T03:42:09;104.57;;;32.00;;
65035;SDS011;51603;49.300;8.880;2024-03-06T03:44:35;102.67;;;39.27;;
65035;SDS011;51603;49.300;8.880;2024-03-06T03:47:01;283.53;;;105.83;;
65035;SDS011;51603;49.300;8.880;2024-03-06T03:49:27;201.20;;;56.70;;
65035;SDS011;51603;49.300;8.880;2024-03-06T03:51:52;298.63;;;146.80;;
65035;SDS011;51603;49.300;8.880;2024-03-06T03:54:18;146.83;;;100.43;;
65035;SDS011;51603;49.300;8.880;2024-03-06T03:56:43;132.03;;;99.93;;
65035;SDS011;51603;49.300;8.880;2024-03-06T03:59:09;132.23;;;96.90;;
65035;SDS011;51603;49.300;8.880;2024-03-06T04:01:35;110.63;;;90.50;;
65035;SDS011;51603;49.300;8.880;2024-03-06T04:04:00;108.03;;;80.80;;
65035;SDS011;51603;49.300;8.880;2024-03-06T04:06:26;65.87;;;47.00;;
65035;SDS011;51603;49.300;8.880;2024-03-06T04:08:51;48.20;;;29.77;;
65035;SDS011;51603;49.300;8.880;2024-03-06T04:11:17;47.83;;;33.13;;
65035;SDS011;51603;49.300;8.880;2024-03-06T04:13:43;48.63;;;36.50;;
65035;SDS011;51603;49.300;8.880;2024-03-06T04:16:08;43.07;;;30.00;;
65035;SDS011;51603;49.300;8.880;2024-03-06T04:18:34;39.10;;;29.00;;
65035;SDS011;51603;49.300;8.880;2024-03-06T04:21:03;39.13;;;31.27;;
65035;SDS011;51603;49.300;8.880;2024-03-06T04:23:30;43.73;;;33.13;;
65035;SDS011;51603;49.300;8.880;2024-03-06T04:25:55;45.43;;;32.70;;
65035;SDS011;51603;49.300;8.880;2024-03-06T04:28:21;40.37;;;28.83;;
65035;SDS011;51603;49.300;8.880;2024-03-06T04:30:46;31.27;;;22.60;;
65035;SDS011;51603;49.300;8.880;2024-03-06T04:33:12;31.70;;;23.33;;
65035;SDS011;51603;49.300;8.880;2024-03-06T04:35:39;24.67;;;18.67;;
65035;SDS011;51603;49.300;8.880;2024-03-06T04:38:05;22.70;;;17.07;;
65035;SDS011;51603;49.300;8.880;2024-03-06T04:40:31;23.07;;;17.67;;
65035;SDS011;51603;49.300;8.880;2024-03-06T04:42:56;28.80;;;21.47;;
65035;SDS011;51603;49.300;8.880;2024-03-06T04:45:22;30.33;;;21.10;;
65035;SDS011;51603;49.300;8.880;2024-03-06T04:47:48;25.00;;;18.83;;
65035;SDS011;51603;49.300;8.880;2024-03-06T04:50:14;32.10;;;21.00;;
65035;SDS011;51603;49.300;8.880;2024-03-06T04:52:40;34.23;;;20.97;;
65035;SDS011;51603;49.300;8.880;2024-03-06T04:55:06;45.93;;;22.50;;
65035;SDS011;51603;49.300;8.880;2024-03-06T04:57:33;26.20;;;19.43;;
65035;SDS011;51603;49.300;8.880;2024-03-06T04:59:59;30.30;;;22.37;;
65035;SDS011;51603;49.300;8.880;2024-03-06T05:02:27;39.23;;;28.20;;
65035;SDS011;51603;49.300;8.880;2024-03-06T05:04:52;32.23;;;22.40;;
65035;SDS011;51603;49.300;8.880;2024-03-06T05:07:18;31.00;;;22.63;;
65035;SDS011;51603;49.300;8.880;2024-03-06T05:09:43;24.20;;;19.20;;
65035;SDS011;51603;49.300;8.880;2024-03-06T05:12:09;28.40;;;20.90;;
65035;SDS011;51603;49.300;8.880;2024-03-06T05:14:34;22.23;;;18.00;;
65035;SDS011;51603;49.300;8.880;2024-03-06T05:17:01;23.40;;;17.43;;
65035;SDS011;51603;49.300;8.880;2024-03-06T05:19:26;30.90;;;23.27;;
65035;SDS011;51603;49.300;8.880;2024-03-06T05:21:57;30.07;;;21.10;;
65035;SDS011;51603;49.300;8.880;2024-03-06T05:24:23;31.77;;;22.20;;
65035;SDS011;51603;49.300;8.880;2024-03-06T05:26:48;24.03;;;20.00;;
65035;SDS011;51603;49.300;8.880;2024-03-06T05:29:14;21.83;;;17.77;;
65035;SDS011;51603;49.300;8.880;2024-03-06T05:31:40;22.93;;;17.93;;
65035;SDS011;51603;49.300;8.880;2024-03-06T05:34:06;25.90;;;19.77;;
65035;SDS011;51603;49.300;8.880;2024-03-06T05:36:32;25.20;;;21.17;;
65035;SDS011;51603;49.300;8.880;2024-03-06T05:38:57;21.10;;;16.57;;
65035;SDS011;51603;49.300;8.880;2024-03-06T05:41:23;25.10;;;18.97;;
65035;SDS011;51603;49.300;8.880;2024-03-06T05:43:48;23.77;;;18.03;;
65035;SDS011;51603;49.300;8.880;2024-03-06T05:46:14;23.33;;;19.80;;
65035;SDS011;51603;49.300;8.880;2024-03-06T05:48:40;29.13;;;22.07;;
65035;SDS011;51603;49.300;8.880;2024-03-06T05:51:06;33.97;;;30.30;;
65035;SDS011;51603;49.300;8.880;2024-03-06T05:53:35;30.13;;;25.13;;
65035;SDS011;51603;49.300;8.880;2024-03-06T05:56:07;27.67;;;23.47;;
65035;SDS011;51603;49.300;8.880;2024-03-06T05:58:36;29.73;;;23.83;;
65035;SDS011;51603;49.300;8.880;2024-03-06T06:01:09;28.43;;;21.60;;
65035;SDS011;51603;49.300;8.880;2024-03-06T06:03:42;34.80;;;28.80;;
65035;SDS011;51603;49.300;8.880;2024-03-06T06:06:07;34.10;;;28.23;;
65035;SDS011;51603;49.300;8.880;2024-03-06T06:08:36;33.60;;;23.47;;
65035;SDS011;51603;49.300;8.880;2024-03-06T06:11:01;30.00;;;23.30;;
65035;SDS011;51603;49.300;8.880;2024-03-06T06:13:30;30.27;;;21.70;;
65035;SDS011;51603;49.300;8.880;2024-03-06T06:15:59;25.57;;;18.83;;
65035;SDS011;51603;49.300;8.880;2024-03-06T06:18:27;24.70;;;19.90;;
65035;SDS011;51603;49.300;8.880;2024-03-06T06:20:53;29.27;;;23.60;;
65035;SDS011;51603;49.300;8.880;2024-03-06T06:23:19;37.50;;;33.40;;
65035;SDS011;51603;49.300;8.880;2024-03-06T06:25:44;40.07;;;35.67;;
65035;SDS011;51603;49.300;8.880;2024-03-06T06:28:10;34.37;;;29.37;;
65035;SDS011;51603;49.300;8.880;2024-03-06T06:30:36;24.70;;;19.30;;
65035;SDS011;51603;49.300;8.880;2024-03-06T06:33:03;28.77;;;21.40;;
65035;SDS011;51603;49.300;8.880;2024-03-06T06:35:29;22.33;;;17.00;;
65035;SDS011;51603;49.300;8.880;2024-03-06T06:37:55;20.00;;;17.30;;
65035;SDS011;51603;49.300;8.880;2024-03-06T06:40:20;18.53;;;15.60;;
65035;SDS011;51603;49.300;8.880;2024-03-06T06:42:47;21.67;;;16.13;;
65035;SDS011;51603;49.300;8.880;2024-03-06T06:45:15;20.50;;;16.50;;
65035;SDS011;51603;49.300;8.880;2024-03-06T06:47:44;22.83;;;19.37;;
65035;SDS011;51603;49.300;8.880;2024-03-06T06:50:10;26.70;;;23.90;;
65035;SDS011;51603;49.300;8.880;2024-03-06T06:52:36;19.57;;;16.70;;
65035;SDS011;51603;49.300;8.880;2024-03-06T06:55:05;25.40;;;19.13;;
65035;SDS011;51603;49.300;8.880;2024-03-06T06:57:32;24.10;;;19.80;;
65035;SDS011;51603;49.300;8.880;2024-03-06T06:59:58;22.10;;;17.10;;
65035;SDS011;51603;49.300;8.880;2024-03-06T07:02:39;18.87;;;15.67;;
65035;SDS011;51603;49.300;8.880;2024-03-06T07:05:06;23.80;;;18.73;;
65035;SDS011;51603;49.300;8.880;2024-03-06T07:07:33;24.07;;;18.43;;
65035;SDS011;51603;49.300;8.880;2024-03-06T07:09:58;20.37;;;16.13;;
65035;SDS011;51603;49.300;8.880;2024-03-06T07:12:24;37.63;;;23.87;;
65035;SDS011;51603;49.300;8.880;2024-03-06T07:14:49;41.13;;;30.73;;
65035;SDS011;51603;49.300;8.880;2024-03-06T07:17:15;35.73;;;26.70;;
65035;SDS011;51603;49.300;8.880;2024-03-06T07:19:41;28.73;;;22.03;;
65035;SDS011;51603;49.300;8.880;2024-03-06T07:22:06;26.77;;;22.50;;
65035;SDS011;51603;49.300;8.880;2024-03-06T07:24:32;26.83;;;22.80;;
65035;SDS011;51603;49.300;8.880;2024-03-06T07:26:59;53.67;;;34.63;;
65035;SDS011;51603;49.300;8.880;2024-03-06T07:29:26;45.20;;;34.93;;
65035;SDS011;51603;49.300;8.880;2024-03-06T07:31:52;27.80;;;22.07;;
65035;SDS011;51603;49.300;8.880;2024-03-06T07:34:18;29.50;;;22.60;;
65035;SDS011;51603;49.300;8.880;2024-03-06T07:36:45;28.20;;;22.27;;
65035;SDS011;51603;49.300;8.880;2024-03-06T07:39:11;25.13;;;20.47;;
65035;SDS011;51603;49.300;8.880;2024-03-06T07:41:37;27.30;;;22.03;;
65035;SDS011;51603;49.300;8.880;2024-03-06T07:44:03;29.20;;;23.60;;
65035;SDS011;51603;49.300;8.880;2024-03-06T07:46:28;28.03;;;23.27;;
65035;SDS011;51603;49.300;8.880;2024-03-06T07:48:54;29.60;;;24.40;;
65035;SDS011;51603;49.300;8.880;2024-03-06T07:51:20;27.10;;;23.77;;
65035;SDS011;51603;49.300;8.880;2024-03-06T07:53:45;26.23;;;21.63;;
65035;SDS011;51603;49.300;8.880;2024-03-06T07:56:11;28.83;;;23.47;;
65035;SDS011;51603;49.300;8.880;2024-03-06T07:58:37;27.67;;;22.50;;
65035;SDS011;51603;49.300;8.880;2024-03-06T08:01:03;26.47;;;22.03;;
65035;SDS011;51603;49.300;8.880;2024-03-06T08:03:29;25.50;;;21.17;;
65035;SDS011;51603;49.300;8.880;2024-03-06T08:05:54;24.20;;;21.53;;
65035;SDS011;51603;49.300;8.880;2024-03-06T08:08:20;23.13;;;19.47;;
65035;SDS011;51603;49.300;8.880;2024-03-06T08:10:46;31.17;;;25.57;;
65035;SDS011;51603;49.300;8.880;2024-03-06T08:13:12;29.43;;;24.17;;
65035;SDS011;51603;49.300;8.880;2024-03-06T08:15:38;30.50;;;25.43;;
65035;SDS011;51603;49.300;8.880;2024-03-06T08:18:05;27.57;;;24.53;;
65035;SDS011;51603;49.300;8.880;2024-03-06T08:20:31;31.17;;;27.10;;
65035;SDS011;51603;49.300;8.880;2024-03-06T08:22:56;33.33;;;27.57;;
65035;SDS011;51603;49.300;8.880;2024-03-06T08:25:23;44.57;;;39.93;;
65035;SDS011;51603;49.300;8.880;2024-03-06T08:27:49;34.83;;;30.90;;
65035;SDS011;51603;49.300;8.880;2024-03-06T08:30:14;39.30;;;32.77;;
65035;SDS011;51603;49.300;8.880;2024-03-06T08:32:40;33.50;;;28.53;;
65035;SDS011;51603;49.300;8.880;2024-03-06T08:35:09;35.83;;;28.50;;
65035;SDS011;51603;49.300;8.880;2024-03-06T08:37:36;36.17;;;30.00;;
65035;SDS011;51603;49.300;8.880;2024-03-06T08:40:02;36.87;;;30.10;;
65035;SDS011;51603;49.300;8.880;2024-03-06T08:42:28;30.87;;;26.70;;
65035;SDS011;51603;49.300;8.880;2024-03-06T08:44:53;35.87;;;29.67;;
65035;SDS011;51603;49.300;8.880;2024-03-06T08:47:19;35.43;;;30.90;;
65035;SDS011;51603;49.300;8.880;2024-03-06T08:49:45;31.70;;;25.77;;
65035;SDS011;51603;49.300;8.880;2024-03-06T08:52:10;33.37;;;28.17;;
65035;SDS011;51603;49.300;8.880;2024-03-06T08:54:38;37.90;;;29.60;;
65035;SDS011;51603;49.300;8.880;2024-03-06T08:57:06;38.00;;;31.63;;
65035;SDS011;51603;49.300;8.880;2024-03-06T08:59:33;36.57;;;30.77;;
65035;SDS011;51603;49.300;8.880;2024-03-06T09:02:10;31.87;;;27.90;;
65035;SDS011;51603;49.300;8.880;2024-03-06T09:04:40;38.80;;;32.13;;
65035;SDS011;51603;49.300;8.880;2024-03-06T09:07:07;39.23;;;32.33;;
65035;SDS011;51603;49.300;8.880;2024-03-06T09:09:32;36.90;;;30.07;;
65035;SDS011;51603;49.300;8.880;2024-03-06T09:11:59;34.70;;;30.93;;
65035;SDS011;51603;49.300;8.880;2024-03-06T09:14:30;37.53;;;31.60;;
65035;SDS011;51603;49.300;8.880;2024-03-06T09:16:59;36.30;;;30.83;;
65035;SDS011;51603;49.300;8.880;2024-03-06T09:19:25;38.00;;;31.83;;
65035;SDS011;51603;49.300;8.880;2024-03-06T09:21:50;32.47;;;28.97;;
65035;SDS011;51603;49.300;8.880;2024-03-06T09:24:16;39.20;;;33.90;;
65035;SDS011;51603;49.300;8.880;2024-03-06T09:26:41;41.03;;;34.40;;
65035;SDS011;51603;49.300;8.880;2024-03-06T09:29:07;39.37;;;34.90;;
65035;SDS011;51603;49.300;8.880;2024-03-06T09:31:32;42.00;;;35.00;;
65035;SDS011;51603;49.300;8.880;2024-03-06T09:33:58;42.33;;;34.17;;
65035;SDS011;51603;49.300;8.880;2024-03-06T09:36:23;36.33;;;32.10;;
65035;SDS011;51603;49.300;8.880;2024-03-06T09:38:50;36.43;;;32.17;;
65035;SDS011;51603;49.300;8.880;2024-03-06T09:41:17;44.63;;;34.30;;
65035;SDS011;51603;49.300;8.880;2024-03-06T09:43:43;42.80;;;32.23;;
65035;SDS011;51603;49.300;8.880;2024-03-06T09:46:09;33.63;;;30.00;;
65035;SDS011;51603;49.300;8.880;2024-03-06T09:48:35;37.43;;;32.57;;
65035;SDS011;51603;49.300;8.880;2024-03-06T09:51:01;37.30;;;31.53;;
65035;SDS011;51603;49.300;8.880;2024-03-06T09:53:27;34.33;;;29.93;;
65035;SDS011;51603;49.300;8.880;2024-03-06T09:55:53;35.40;;;28.60;;
65035;SDS011;51603;49.300;8.880;2024-03-06T09:58:21;31.03;;;27.33;;
65035;SDS011;51603;49.300;8.880;2024-03-06T10:00:47;33.53;;;29.27;;
65035;SDS011;51603;49.300;8.880;2024-03-06T10:03:15;39.80;;;30.03;;
65035;SDS011;51603;49.300;8.880;2024-03-06T10:05:40;44.87;;;32.50;;
65035;SDS011;51603;49.300;8.880;2024-03-06T10:08:08;34.07;;;29.10;;
65035;SDS011;51603;49.300;8.880;2024-03-06T10:10:34;34.20;;;30.00;;
65035;SDS011;51603;49.300;8.880;2024-03-06T10:13:01;30.83;;;27.40;;
65035;SDS011;51603;49.300;8.880;2024-03-06T10:15:27;34.37;;;30.73;;
65035;SDS011;51603;49.300;8.880;2024-03-06T10:20:39;32.00;;;28.07;;
65035;SDS011;51603;49.300;8.880;2024-03-06T10:23:08;29.83;;;26.23;;
65035;SDS011;51603;49.300;8.880;2024-03-06T10:25:34;31.53;;;28.10;;
65035;SDS011;51603;49.300;8.880;2024-03-06T10:30:35;31.87;;;27.40;;
65035;SDS011;51603;49.300;8.880;2024-03-06T10:33:08;29.10;;;25.60;;
65035;SDS011;51603;49.300;8.880;2024-03-06T10:35:35;30.07;;;26.80;;
65035;SDS011;51603;49.300;8.880;2024-03-06T10:38:02;34.10;;;27.90;;
65035;SDS011;51603;49.300;8.880;2024-03-06T10:40:32;29.10;;;25.00;;
65035;SDS011;51603;49.300;8.880;2024-03-06T10:43:05;30.07;;;23.87;;
65035;SDS011;51603;49.300;8.880;2024-03-06T10:45:47;28.93;;;25.87;;
65035;SDS011;51603;49.300;8.880;2024-03-06T10:48:23;29.77;;;24.30;;
65035;SDS011;51603;49.300;8.880;2024-03-06T10:50:53;27.53;;;24.60;;
65035;SDS011;51603;49.300;8.880;2024-03-06T10:53:19;30.17;;;24.07;;
65035;SDS011;51603;49.300;8.880;2024-03-06T10:55:46;27.83;;;23.17;;
65035;SDS011;51603;49.300;8.880;2024-03-06T10:58:13;28.20;;;23.77;;
65035;SDS011;51603;49.300;8.880;2024-03-06T11:00:45;25.83;;;23.03;;
65035;SDS011;51603;49.300;8.880;2024-03-06T11:03:12;27.07;;;24.33;;
65035;SDS011;51603;49.300;8.880;2024-03-06T11:05:39;29.00;;;25.57;;
65035;SDS011;51603;49.300;8.880;2024-03-06T11:08:08;27.87;;;24.90;;
65035;SDS011;51603;49.300;8.880;2024-03-06T11:10:36;30.07;;;25.53;;
65035;SDS011;51603;49.300;8.880;2024-03-06T11:13:03;27.20;;;23.20;;
65035;SDS011;51603;49.300;8.880;2024-03-06T11:15:45;28.57;;;24.00;;
65035;SDS011;51603;49.300;8.880;2024-03-06T11:20:58;25.63;;;22.57;;
65035;SDS011;51603;49.300;8.880;2024-03-06T11:23:26;32.57;;;25.47;;
65035;SDS011;51603;49.300;8.880;2024-03-06T11:28:24;25.87;;;22.67;;
65035;SDS011;51603;49.300;8.880;2024-03-06T11:30:55;25.17;;;21.30;;
65035;SDS011;51603;49.300;8.880;2024-03-06T11:33:37;26.43;;;23.50;;
65035;SDS011;51603;49.300;8.880;2024-03-06T11:38:42;27.30;;;21.20;;
65035;SDS011;51603;49.300;8.880;2024-03-06T11:41:11;27.43;;;20.97;;
65035;SDS011;51603;49.300;8.880;2024-03-06T11:43:43;28.07;;;22.40;;
65035;SDS011;51603;49.300;8.880;2024-03-06T11:46:09;24.17;;;21.73;;
65035;SDS011;51603;49.300;8.880;2024-03-06T11:48:38;22.87;;;19.40;;
65035;SDS011;51603;49.300;8.880;2024-03-06T11:51:05;25.47;;;21.27;;
65035;SDS011;51603;49.300;8.880;2024-03-06T11:53:30;25.23;;;22.53;;
65035;SDS011;51603;49.300;8.880;2024-03-06T11:55:59;34.17;;;23.73;;
65035;SDS011;51603;49.300;8.880;2024-03-06T11:58:24;24.00;;;19.70;;
65035;SDS011;51603;49.300;8.880;2024-03-06T12:00:50;21.73;;;18.73;;
65035;SDS011;51603;49.300;8.880;2024-03-06T12:03:17;24.63;;;20.00;;
65035;SDS011;51603;49.300;8.880;2024-03-06T12:05:43;24.23;;;19.40;;
65035;SDS011;51603;49.300;8.880;2024-03-06T12:08:11;22.67;;;20.07;;
65035;SDS011;51603;49.300;8.880;2024-03-06T12:10:37;23.80;;;20.67;;
65035;SDS011;51603;49.300;8.880;2024-03-06T12:13:04;22.90;;;20.50;;
65035;SDS011;51603;49.300;8.880;2024-03-06T12:15:29;25.30;;;20.63;;
65035;SDS011;51603;49.300;8.880;2024-03-06T12:17:55;27.73;;;21.60;;
65035;SDS011;51603;49.300;8.880;2024-03-06T12:20:21;27.73;;;21.77;;
65035;SDS011;51603;49.300;8.880;2024-03-06T12:22:50;23.90;;;21.27;;
65035;SDS011;51603;49.300;8.880;2024-03-06T12:25:24;23.17;;;20.70;;
65035;SDS011;51603;49.300;8.880;2024-03-06T12:27:50;24.67;;;22.00;;
65035;SDS011;51603;49.300;8.880;2024-03-06T12:30:20;23.87;;;19.90;;
65035;SDS011;51603;49.300;8.880;2024-03-06T12:32:57;25.53;;;21.43;;
65035;SDS011;51603;49.300;8.880;2024-03-06T12:35:29;27.67;;;23.37;;
65035;SDS011;51603;49.300;8.880;2024-03-06T12:37:55;29.87;;;24.30;;
65035;SDS011;51603;49.300;8.880;2024-03-06T12:40:21;25.33;;;21.80;;
65035;SDS011;51603;49.300;8.880;2024-03-06T12:42:47;23.47;;;20.30;;
65035;SDS011;51603;49.300;8.880;2024-03-06T12:45:14;25.20;;;21.50;;
65035;SDS011;51603;49.300;8.880;2024-03-06T12:47:41;25.30;;;22.17;;
65035;SDS011;51603;49.300;8.880;2024-03-06T12:50:07;23.60;;;20.97;;
65035;SDS011;51603;49.300;8.880;2024-03-06T12:52:36;26.87;;;23.13;;
65035;SDS011;51603;49.300;8.880;2024-03-06T12:55:02;27.27;;;22.30;;
65035;SDS011;51603;49.300;8.880;2024-03-06T12:57:30;26.13;;;22.33;;
65035;SDS011;51603;49.300;8.880;2024-03-06T12:59:56;26.00;;;20.43;;
65035;SDS011;51603;49.300;8.880;2024-03-06T13:02:21;24.70;;;21.43;;
65035;SDS011;51603;49.300;8.880;2024-03-06T13:04:47;31.80;;;22.97;;
65035;SDS011;51603;49.300;8.880;2024-03-06T13:07:14;30.03;;;21.60;;
65035;SDS011;51603;49.300;8.880;2024-03-06T13:09:39;25.47;;;22.50;;
65035;SDS011;51603;49.300;8.880;2024-03-06T13:12:05;32.57;;;23.00;;
65035;SDS011;51603;49.300;8.880;2024-03-06T13:14:31;26.83;;;23.43;;
65035;SDS011;51603;49.300;8.880;2024-03-06T13:16:57;28.67;;;22.23;;
65035;SDS011;51603;49.300;8.880;2024-03-06T13:19:23;30.47;;;23.20;;
65035;SDS011;51603;49.300;8.880;2024-03-06T13:21:48;24.50;;;20.37;;
65035;SDS011;51603;49.300;8.880;2024-03-06T13:24:14;27.10;;;22.40;;
65035;SDS011;51603;49.300;8.880;2024-03-06T13:26:39;27.40;;;23.27;;
65035;SDS011;51603;49.300;8.880;2024-03-06T13:29:05;26.30;;;22.40;;
65035;SDS011;51603;49.300;8.880;2024-03-06T13:31:34;26.40;;;21.43;;
65035;SDS011;51603;49.300;8.880;2024-03-06T13:34:00;25.80;;;20.73;;
65035;SDS011;51603;49.300;8.880;2024-03-06T13:36:26;26.87;;;22.50;;
65035;SDS011;51603;49.300;8.880;2024-03-06T13:38:57;26.90;;;20.57;;
65035;SDS011;51603;49.300;8.880;2024-03-06T13:41:23;28.20;;;25.30;;
65035;SDS011;51603;49.300;8.880;2024-03-06T13:43:49;25.53;;;21.03;;
65035;SDS011;51603;49.300;8.880;2024-03-06T13:46:17;23.77;;;20.00;;
65035;SDS011;51603;49.300;8.880;2024-03-06T13:48:43;27.43;;;22.83;;
65035;SDS011;51603;49.300;8.880;2024-03-06T13:51:09;25.10;;;21.73;;
65035;SDS011;51603;49.300;8.880;2024-03-06T13:53:37;26.70;;;21.53;;
65035;SDS011;51603;49.300;8.880;2024-03-06T13:56:03;22.47;;;19.30;;
65035;SDS011;51603;49.300;8.880;2024-03-06T13:58:28;29.50;;;22.23;;
65035;SDS011;51603;49.300;8.880;2024-03-06T14:00:57;26.97;;;21.83;;
65035;SDS011;51603;49.300;8.880;2024-03-06T14:03:23;26.60;;;21.17;;
65035;SDS011;51603;49.300;8.880;2024-03-06T14:05:49;24.80;;;20.77;;
65035;SDS011;51603;49.300;8.880;2024-03-06T14:08:15;26.70;;;21.00;;
65035;SDS011;51603;49.300;8.880;2024-03-06T14:10:41;28.30;;;20.57;;
65035;SDS011;51603;49.300;8.880;2024-03-06T14:13:07;30.63;;;22.27;;
65035;SDS011;51603;49.300;8.880;2024-03-06T14:15:34;31.10;;;22.73;;
65035;SDS011;51603;49.300;8.880;2024-03-06T14:18:00;26.70;;;20.80;;
65035;SDS011;51603;49.300;8.880;2024-03-06T14:20:26;23.00;;;19.73;;
65035;SDS011;51603;49.300;8.880;2024-03-06T14:22:52;28.57;;;21.27;;
65035;SDS011;51603;49.300;8.880;2024-03-06T14:25:19;29.20;;;23.17;;
65035;SDS011;51603;49.300;8.880;2024-03-06T14:27:48;26.43;;;21.60;;
65035;SDS011;51603;49.300;8.880;2024-03-06T14:30:14;26.43;;;22.53;;